Time;durP1;ratioP1;P1;durP2;ratioP2;P2;SDS_P1;SDS_P2;PMS_P1;PMS_P2;Temp;Humidity;BMP_temperature;BMP_pressure;BME280_temperature;BME280_humidity;BME280_pressure;Samples;Min_cycle;Max_cycle;Signal;HPM_P1;HPM_P2
2022/03/13 00:02:04;;;;;;;;;;;8.50;91.40;;;7.11;67.94;101225.19;2566266;30;138642;-41
2022/03/13 00:04:31;;;;;;;;;;;8.50;91.50;;;7.09;67.42;101238.09;2568103;30;137268;-41
2022/03/13 00:06:59;;;;;;;;;;;8.50;91.40;;;7.00;67.53;101230.00;2566553;30;138932;-41
2022/03/13 00:09:26;;;;;;;;;;;8.40;91.30;;;6.95;68.38;101229.69;2567791;30;137504;-41
2022/03/13 00:11:54;;;;;;;;;;;8.40;91.70;;;6.91;68.38;101228.38;2567046;30;139806;-41
2022/03/13 00:14:24;;;;;;;;;;;8.30;91.70;;;6.86;68.34;101214.47;2567655;30;137199;-41
2022/03/13 00:16:53;;;;;;;;;;;8.30;91.80;;;6.88;68.13;101231.41;2568401;30;138974;-41
2022/03/13 00:19:24;;;;;;;;;;;8.30;91.60;;;6.85;68.11;101226.34;2568051;30;137380;-41
2022/03/13 00:21:53;;;;;;;;;;;8.20;91.70;;;6.94;67.18;101222.59;2566438;30;138547;-41
2022/03/13 00:24:22;;;;;;;;;;;8.30;91.40;;;6.93;67.14;101228.19;2564799;30;137928;-41
2022/03/13 00:26:51;;;;;;;;;;;8.30;91.20;;;6.91;66.63;101228.38;2567698;30;138211;-42
2022/03/13 00:29:19;;;;;;;;;;;8.30;91.20;;;6.86;67.30;101225.31;2566269;30;137009;-41
2022/03/13 00:31:47;;;;;;;;;;;8.20;91.20;;;6.84;66.49;101227.38;2566178;30;139257;-41
2022/03/13 00:34:14;;;;;;;;;;;8.20;90.90;;;6.80;66.34;101217.91;2567094;30;136954;-41
2022/03/13 00:36:42;;;;;;;;;;;8.20;91.00;;;6.84;65.52;101217.38;2567402;30;137878;-41
2022/03/13 00:39:10;;;;;;;;;;;8.20;90.60;;;6.79;66.26;101227.06;2565707;30;137395;-40
2022/03/13 00:41:38;;;;;;;;;;;8.20;91.00;;;6.65;66.25;101218.69;2567840;30;138147;-41
2022/03/13 00:44:06;;;;;;;;;;;8.10;90.80;;;6.61;66.37;101218.19;2567982;30;137364;-41
2022/03/13 00:46:33;;;;;;;;;;;8.00;90.80;;;6.54;66.51;101210.91;2568746;30;137378;-41
2022/03/13 00:49:00;;;;;;;;;;;8.00;90.90;;;6.52;67.08;101213.81;2567952;30;136882;-41
2022/03/13 00:51:28;;;;;;;;;;;7.90;91.20;;;6.48;66.60;101205.19;2568314;30;138312;-41
2022/03/13 00:53:55;;;;;;;;;;;7.90;90.90;;;6.48;66.61;101202.47;2567939;30;137060;-40
2022/03/13 00:56:23;;;;;;;;;;;7.90;90.90;;;6.48;66.37;101205.19;2567214;30;138494;-41
2022/03/13 00:58:50;;;;;;;;;;;7.90;90.90;;;6.48;65.30;101194.34;2567447;30;137950;-41
2022/03/13 01:01:17;;;;;;;;;;;7.90;90.40;;;6.52;64.54;101183.13;2566011;30;137254;-41
2022/03/13 01:03:45;;;;;;;;;;;7.90;90.10;;;6.52;64.22;101185.84;2569320;30;137008;-40
2022/03/13 01:06:13;;;;;;;;;;;7.90;89.90;;;6.50;63.83;101175.19;2568915;30;137470;-41
2022/03/13 01:08:46;;;;;;;;;;;7.90;89.90;;;6.46;63.58;101168.41;2566085;30;136997;-41
2022/03/13 01:11:16;;;;;;;;;;;7.90;89.40;;;6.46;63.39;101177.41;2568243;30;138314;-41
2022/03/13 01:13:43;;;;;;;;;;;7.90;89.30;;;6.49;62.98;101176.19;2564914;30;137428;-40
2022/03/13 01:16:22;;;;;;;;;;;7.90;88.80;;;6.43;62.67;101160.66;2568863;30;136659;-41
2022/03/13 01:18:55;;;;;;;;;;;7.90;88.50;;;6.44;62.73;101170.47;2568070;30;137160;-40
2022/03/13 01:21:31;;;;;;;;;;;7.80;88.60;;;6.38;61.85;101160.34;2571528;30;138234;31
2022/03/13 01:24:01;;;;;;;;;;;7.80;87.90;;;6.36;61.85;101155.06;2568842;30;136975;-39
2022/03/13 01:26:34;;;;;;;;;;;7.80;87.70;;;6.41;61.40;101151.84;2570379;30;138807;-39
2022/03/13 01:29:06;;;;;;;;;;;7.80;87.20;;;6.29;61.21;101152.25;2568058;30;137804;-39
2022/03/13 01:31:36;;;;;;;;;;;7.70;87.10;;;6.27;61.48;101148.00;2570275;30;137405;-40
2022/03/13 01:34:05;;;;;;;;;;;7.70;87.30;;;6.23;61.14;101142.09;2569628;30;136891;-39
2022/03/13 01:36:34;;;;;;;;;;;7.70;86.90;;;6.14;61.57;101140.44;2570026;30;138183;-39
2022/03/13 01:39:03;;;;;;;;;;;7.60;87.20;;;6.06;61.41;101135.06;2570145;30;137767;-40
2022/03/13 01:41:34;;;;;;;;;;;7.50;87.00;;;6.09;61.45;101143.66;2567506;30;137472;-40
2022/03/13 01:44:06;;;;;;;;;;;7.50;87.40;;;5.99;60.79;101145.72;2570079;30;136962;-39
2022/03/13 01:46:33;;;;;;;;;;;7.50;86.30;;;5.98;60.41;101144.03;2568604;30;137273;-39
2022/03/13 01:49:05;;;;;;;;;;;7.40;85.90;;;6.01;60.04;101132.88;2571147;30;137754;-40
2022/03/13 01:51:34;;;;;;;;;;;7.40;86.10;;;5.99;60.48;101132.19;2569266;30;138231;-39
2022/03/13 01:54:05;;;;;;;;;;;7.40;86.20;;;5.94;59.93;101127.28;2567433;30;136878;-40
2022/03/13 01:56:34;;;;;;;;;;;7.40;85.90;;;6.01;59.08;101128.31;2570440;30;137210;-39
2022/03/13 01:59:03;;;;;;;;;;;7.40;84.80;;;6.06;59.34;101127.78;2569541;30;136758;-40
2022/03/13 02:01:31;;;;;;;;;;;7.40;85.40;;;5.90;58.50;101104.28;2570396;30;138369;-39
2022/03/13 02:03:59;;;;;;;;;;;7.50;84.40;;;5.99;59.34;101121.34;2566068;30;137412;-40
2022/03/13 02:06:27;;;;;;;;;;;7.40;84.90;;;5.97;59.06;101115.25;2569685;30;138989;-39
2022/03/13 02:08:55;;;;;;;;;;;7.40;85.10;;;5.93;59.04;101108.50;2570261;30;137796;-39
2022/03/13 02:11:28;;;;;;;;;;;7.40;85.00;;;5.98;58.39;101111.53;2567904;30;139007;-40
2022/03/13 02:13:55;;;;;;;;;;;7.40;84.50;;;5.98;58.38;101103.41;2570028;30;137091;-40
2022/03/13 02:16:28;;;;;;;;;;;7.30;84.00;;;6.00;57.51;101098.66;2570136;30;138430;-39
2022/03/13 02:18:56;;;;;;;;;;;7.40;83.50;;;6.07;56.54;101094.25;2570386;30;137185;-40
2022/03/13 02:21:27;;;;;;;;;;;7.40;82.40;;;6.09;56.63;101094.91;2570301;30;137379;-39
2022/03/13 02:23:58;;;;;;;;;;;7.50;82.50;;;6.07;56.20;101091.53;2571262;30;137328;-39
2022/03/13 02:26:26;;;;;;;;;;;7.50;82.10;;;5.99;56.67;101086.13;2569027;30;138136;-39
2022/03/13 02:28:55;;;;;;;;;;;7.40;82.50;;;5.86;57.19;101082.13;2571240;30;137173;-39
2022/03/13 02:31:34;;;;;;;;;;;7.40;82.90;;;5.93;55.87;101089.56;2568548;30;138232;-40
2022/03/13 02:34:08;;;;;;;;;;;7.30;81.80;;;5.92;55.99;101085.97;2569575;30;137923;-39
2022/03/13 02:36:35;;;;;;;;;;;7.30;81.60;;;5.95;55.46;101087.50;2570611;30;138829;-39
2022/03/13 02:39:06;;;;;;;;;;;7.40;81.20;;;5.98;55.57;101092.56;2570080;30;137847;-39
2022/03/13 02:41:34;;;;;;;;;;;7.40;81.30;;;5.93;55.91;101084.13;2570397;30;138168;-40
2022/03/13 02:44:02;;;;;;;;;;;7.30;81.60;;;5.93;54.70;101084.13;2568221;30;137284;-39
2022/03/13 02:46:46;;;;;;;;;;;7.30;79.90;;;5.79;55.68;101078.41;2570172;30;138268;-39
2022/03/13 02:49:16;;;;;;;;;;;7.30;80.90;;;5.73;55.50;101079.97;2569873;30;137725;-40
2022/03/13 02:51:45;;;;;;;;;;;7.20;81.10;;;5.78;54.45;101082.13;2566514;30;137444;-39
2022/03/13 02:54:14;;;;;;;;;;;7.20;80.10;;;5.67;54.86;101074.41;2570867;30;136969;-39
2022/03/13 02:56:42;;;;;;;;;;;7.10;80.10;;;5.66;55.02;101078.13;2569853;30;137894;-39
2022/03/13 02:59:10;;;;;;;;;;;7.10;80.50;;;5.57;54.55;101074.59;2570292;30;137329;-40
2022/03/13 03:01:37;;;;;;;;;;;7.10;80.10;;;5.57;54.44;101063.78;2567922;30;138797;-40
2022/03/13 03:04:05;;;;;;;;;;;7.00;79.80;;;5.56;53.75;101068.31;2570221;30;136669;-39
2022/03/13 03:06:34;;;;;;;;;;;7.00;79.20;;;5.66;52.87;101067.31;2570787;30;138265;-39
2022/03/13 03:09:03;;;;;;;;;;;7.10;78.50;;;5.60;54.13;101074.25;2569410;30;137262;-40
2022/03/13 03:11:33;;;;;;;;;;;7.00;79.20;;;5.61;53.03;101071.38;2568673;30;139506;-39
2022/03/13 03:14:02;;;;;;;;;;;7.00;78.60;;;5.64;52.63;101067.47;2569446;30;137869;-39
2022/03/13 03:16:30;;;;;;;;;;;7.00;78.10;;;5.57;52.58;101067.34;2570204;30;138442;-40
2022/03/13 03:18:58;;;;;;;;;;;7.00;77.90;;;5.61;51.52;101071.38;2569820;30;137908;-40
2022/03/13 03:21:26;;;;;;;;;;;7.00;76.70;;;5.70;51.09;101068.63;2569653;30;138067;-39
2022/03/13 03:23:53;;;;;;;;;;;7.00;76.40;;;5.66;51.41;101070.00;2568206;30;137294;-39
2022/03/13 03:26:24;;;;;;;;;;;7.10;76.60;;;5.64;51.59;101066.63;2569263;30;138229;-40
2022/03/13 03:28:52;;;;;;;;;;;7.00;76.80;;;5.49;51.45;101061.09;2569704;30;137763;-39
2022/03/13 03:31:19;;;;;;;;;;;7.00;76.30;;;5.58;50.55;101068.16;2570185;30;139056;-40
2022/03/13 03:33:46;;;;;;;;;;;7.00;75.50;;;5.47;51.61;101069.38;2568747;30;136595;-39
2022/03/13 03:36:15;;;;;;;;;;;6.90;76.70;;;5.45;50.49;101076.81;2569592;30;138678;-40
2022/03/13 03:38:42;;;;;;;;;;;6.90;75.60;;;5.44;49.78;101077.84;2568795;30;137354;-39
2022/03/13 03:41:10;;;;;;;;;;;6.90;74.80;;;5.33;50.43;101076.34;2569138;30;136733;-39
2022/03/13 03:43:40;;;;;;;;;;;6.80;75.40;;;5.26;50.69;101078.88;2569135;30;136948;-40
2022/03/13 03:46:11;;;;;;;;;;;6.80;75.50;;;5.22;50.31;101077.53;2570392;30;138975;-39
2022/03/13 03:48:39;;;;;;;;;;;6.70;75.10;;;5.15;51.19;101079.25;2569420;30;136743;-40
2022/03/13 03:51:06;;;;;;;;;;;6.60;76.00;;;5.13;51.78;101089.38;2567031;30;138204;-39
2022/03/13 03:53:34;;;;;;;;;;;6.60;76.70;;;5.08;50.89;101080.94;2569798;30;136998;-39
2022/03/13 03:56:02;;;;;;;;;;;6.60;75.50;;;5.11;50.34;101073.31;2571308;30;137872;-39
2022/03/13 03:58:29;;;;;;;;;;;6.60;75.40;;;5.15;51.81;101080.06;2568483;30;136958;-40
2022/03/13 04:00:57;;;;;;;;;;;6.60;76.60;;;5.18;49.89;101076.19;2566688;30;138207;-39
2022/03/13 04:03:25;;;;;;;;;;;6.70;74.80;;;5.12;50.67;101074.19;2569432;30;136721;-39
2022/03/13 04:05:54;;;;;;;;;;;6.60;75.50;;;5.09;50.68;101077.22;2566887;30;138245;-39
2022/03/13 04:08:21;;;;;;;;;;;6.60;75.20;;;5.02;50.32;101072.47;2569537;30;136969;-39
2022/03/13 04:10:48;;;;;;;;;;;6.50;75.20;;;5.01;50.51;101068.06;2566076;30;139186;-39
2022/03/13 04:13:18;;;;;;;;;;;6.50;75.20;;;5.12;49.24;101063.34;2569652;30;137047;-39
2022/03/13 04:15:45;;;;;;;;;;;6.50;74.10;;;5.15;48.52;101063.84;2570674;30;138197;-39
2022/03/13 04:18:14;;;;;;;;;;;6.60;73.60;;;5.19;48.90;101061.66;2567866;30;138313;-39
2022/03/13 04:20:43;;;;;;;;;;;6.60;73.60;;;5.17;49.35;101063.69;2568266;30;139341;-40
2022/03/13 04:23:11;;;;;;;;;;;6.60;74.10;;;5.13;49.96;101060.47;2570313;30;137032;-39
2022/03/13 04:25:38;;;;;;;;;;;6.60;74.90;;;5.16;49.45;101051.19;2569783;30;138140;-39
2022/03/13 04:28:09;;;;;;;;;;;6.60;74.40;;;5.15;49.44;101044.06;2569370;30;137716;-39
2022/03/13 04:30:39;;;;;;;;;;;6.60;74.10;;;5.26;47.66;101051.00;2569243;30;138318;-41
2022/03/13 04:33:07;;;;;;;;;;;6.70;72.50;;;5.43;47.46;101046.38;2568903;30;136858;-39
2022/03/13 04:35:34;;;;;;;;;;;6.70;72.50;;;5.50;47.61;101055.50;2569078;30;138506;-40
2022/03/13 04:38:02;;;;;;;;;;;6.80;72.50;;;5.48;48.01;101054.81;2568685;30;137251;-39
2022/03/13 04:40:30;;;;;;;;;;;6.80;73.00;;;5.55;48.52;101060.41;2567274;30;139764;-40
2022/03/13 04:42:57;;;;;;;;;;;6.90;73.50;;;5.61;47.68;101062.41;2568808;30;138337;-39
2022/03/13 04:45:25;;;;;;;;;;;7.00;72.40;;;5.71;47.25;101059.50;2568505;30;138097;-39
2022/03/13 04:47:53;;;;;;;;;;;7.10;72.20;;;5.75;46.34;101056.28;2569395;30;137595;-39
2022/03/13 04:50:20;;;;;;;;;;;7.10;71.30;;;5.94;45.20;101048.72;2570730;30;139044;-39
2022/03/13 04:52:47;;;;;;;;;;;7.20;70.10;;;5.93;44.74;101047.03;2569519;30;137290;-38
2022/03/13 04:55:15;;;;;;;;;;;7.30;69.70;;;5.94;45.25;101043.31;2569726;30;137296;-39
2022/03/13 04:57:42;;;;;;;;;;;7.30;70.00;;;6.00;46.16;101041.78;2568209;30;137410;-40
2022/03/13 05:00:10;;;;;;;;;;;7.30;70.80;;;6.10;44.67;101030.75;2569535;30;138259;-39
2022/03/13 05:02:37;;;;;;;;;;;7.40;69.10;;;6.19;43.47;101030.53;2569347;30;136946;-42
2022/03/13 05:05:06;;;;;;;;;;;7.50;67.60;;;6.28;42.91;101030.47;2571067;30;137289;-41
2022/03/13 05:07:34;;;;;;;;;;;7.60;67.70;;;6.27;43.42;101042.34;2567763;30;136672;-39
2022/03/13 05:10:01;;;;;;;;;;;7.60;68.10;;;6.29;44.82;101037.56;2567716;30;139153;-39
2022/03/13 05:12:29;;;;;;;;;;;7.70;69.40;;;6.38;42.34;101046.50;2568825;30;137112;-39
2022/03/13 05:14:57;;;;;;;;;;;7.70;67.00;;;6.36;43.52;101060.22;2569118;30;138220;-40
2022/03/13 05:17:24;;;;;;;;;;;7.70;68.10;;;6.29;43.17;101052.00;2571663;30;137120;-39
2022/03/13 05:19:52;;;;;;;;;;;7.70;67.70;;;6.38;41.93;101050.06;2569079;30;138461;-39
2022/03/13 05:22:19;;;;;;;;;;;7.70;67.00;;;6.37;42.19;101042.97;2571374;30;137038;-40
2022/03/13 05:24:47;;;;;;;;;;;7.70;66.50;;;6.40;41.51;101036.31;2570214;30;138378;-40
2022/03/13 05:27:14;;;;;;;;;;;7.80;66.00;;;6.41;41.72;101046.16;2572102;30;136717;-39
2022/03/13 05:29:42;;;;;;;;;;;7.80;66.10;;;6.39;42.22;101054.47;2570444;30;138360;-39
2022/03/13 05:32:09;;;;;;;;;;;7.80;66.50;;;6.28;42.28;101053.00;2569770;30;137901;-40
2022/03/13 05:34:37;;;;;;;;;;;7.70;66.40;;;6.26;41.84;101043.34;2570098;30;139127;-40
2022/03/13 05:37:06;;;;;;;;;;;7.70;66.00;;;6.23;41.81;101049.13;2570063;30;137076;-39
2022/03/13 05:39:34;;;;;;;;;;;7.60;66.00;;;6.29;42.29;101041.16;2570807;30;138416;-39
2022/03/13 05:42:06;;;;;;;;;;;7.60;66.50;;;6.25;43.56;101047.94;2570464;30;137919;-40
2022/03/13 05:44:35;;;;;;;;;;;7.60;67.70;;;6.24;41.48;101043.56;2570037;30;138420;-39
2022/03/13 05:47:04;;;;;;;;;;;7.70;65.50;;;6.24;41.95;101048.97;2569611;30;137039;-39
2022/03/13 05:49:31;;;;;;;;;;;7.60;66.20;;;6.33;41.04;101060.59;2571229;30;139102;-40
2022/03/13 05:52:00;;;;;;;;;;;7.60;65.30;;;6.40;40.88;101044.47;2569830;30;136999;-39
2022/03/13 05:54:27;;;;;;;;;;;7.70;64.90;;;6.35;42.40;101053.13;2567613;30;139605;-39
2022/03/13 05:56:55;;;;;;;;;;;7.70;66.70;;;6.40;41.79;101048.03;2569116;30;137804;-39
2022/03/13 05:59:25;;;;;;;;;;;7.70;66.00;;;6.45;40.63;101053.75;2571317;30;138401;-39
2022/03/13 06:01:53;;;;;;;;;;;7.80;65.00;;;6.40;41.24;101058.00;2567267;30;137485;-39
2022/03/13 06:04:22;;;;;;;;;;;7.80;65.00;;;6.42;41.79;101064.94;2569028;30;139040;-40
2022/03/13 06:06:49;;;;;;;;;;;7.70;65.50;;;6.48;42.72;101061.50;2570224;30;137398;-40
2022/03/13 06:09:17;;;;;;;;;;;7.80;66.80;;;6.50;41.84;101068.63;2568324;30;138263;-39
2022/03/13 06:11:45;;;;;;;;;;;7.80;66.10;;;6.48;41.75;101066.06;2570233;30;137464;-39
2022/03/13 06:14:12;;;;;;;;;;;7.80;65.80;;;6.46;41.22;101077.13;2567579;30;138377;-39
2022/03/13 06:16:40;;;;;;;;;;;7.80;65.30;;;6.48;41.80;101082.34;2570366;30;137829;-40
2022/03/13 06:19:07;;;;;;;;;;;7.80;66.00;;;6.51;40.64;101073.88;2571079;30;138198;-39
2022/03/13 06:21:34;;;;;;;;;;;7.90;64.90;;;6.56;41.25;101071.47;2568900;30;137202;-39
2022/03/13 06:24:02;;;;;;;;;;;7.90;65.40;;;6.57;41.28;101081.28;2569103;30;138242;-40
2022/03/13 06:26:29;;;;;;;;;;;7.90;65.30;;;6.59;41.38;101083.81;2571914;30;137993;-39
2022/03/13 06:28:59;;;;;;;;;;;7.90;65.20;;;6.50;40.80;101065.91;2567525;30;138082;-40
2022/03/13 06:31:27;;;;;;;;;;;7.90;65.00;;;6.61;42.44;101079.03;2570596;30;137062;-40
2022/03/13 06:33:55;;;;;;;;;;;8.00;66.30;;;6.57;43.03;101081.28;2570618;30;138388;-40
2022/03/13 06:36:23;;;;;;;;;;;8.00;67.50;;;6.56;41.05;101084.16;2570480;30;137020;-39
2022/03/13 06:38:50;;;;;;;;;;;7.90;65.00;;;6.58;40.96;101076.69;2571055;30;137450;-40
2022/03/13 06:41:19;;;;;;;;;;;7.90;64.50;;;6.63;41.27;101071.59;2570314;30;137215;-39
2022/03/13 06:43:47;;;;;;;;;;;8.00;65.10;;;6.61;41.08;101085.31;2569362;30;138339;-40
2022/03/13 06:46:14;;;;;;;;;;;8.00;64.90;;;6.54;42.23;101084.38;2570724;30;137067;-40
2022/03/13 06:48:42;;;;;;;;;;;7.90;66.00;;;6.58;40.99;101091.09;2569053;30;138251;-39
2022/03/13 06:51:10;;;;;;;;;;;7.90;64.70;;;6.66;41.38;101084.78;2568481;30;137926;-39
2022/03/13 06:53:37;;;;;;;;;;;8.00;65.40;;;6.73;40.70;101083.03;2568785;30;138243;-39
2022/03/13 06:56:05;;;;;;;;;;;8.00;65.00;;;6.74;41.07;101082.00;2570389;30;137075;-40
2022/03/13 06:58:32;;;;;;;;;;;8.10;65.10;;;6.78;40.33;101082.50;2568845;30;138429;-39
2022/03/13 07:01:00;;;;;;;;;;;8.10;64.40;;;6.85;39.25;101088.03;2569719;30;137374;-40
2022/03/13 07:03:27;;;;;;;;;;;8.20;63.40;;;6.86;40.72;101089.72;2571072;30;138264;-39
2022/03/13 07:05:55;;;;;;;;;;;8.20;64.80;;;6.90;40.13;101088.34;2569010;30;137820;-39
2022/03/13 07:08:22;;;;;;;;;;;8.20;64.10;;;6.89;40.75;101090.19;2568498;30;138256;-40
2022/03/13 07:10:50;;;;;;;;;;;8.20;64.60;;;6.97;39.47;101083.88;2569900;30;137077;-40
2022/03/13 07:13:18;;;;;;;;;;;8.20;63.30;;;6.94;40.33;101086.94;2568219;30;138305;-40
2022/03/13 07:15:48;;;;;;;;;;;8.30;64.40;;;7.00;40.11;101079.94;2569327;30;137126;-39
2022/03/13 07:18:16;;;;;;;;;;;8.30;64.00;;;7.09;39.94;101080.72;2568100;30;137164;-40
2022/03/13 07:20:44;;;;;;;;;;;8.40;64.00;;;7.20;39.34;101072.16;2571139;30;137047;-38
2022/03/13 07:23:11;;;;;;;;;;;8.50;63.20;;;7.13;40.11;101063.03;2572086;30;139087;-41
2022/03/13 07:25:38;;;;;;;;;;;8.50;63.90;;;7.25;39.38;101080.56;2566645;30;137121;-40
2022/03/13 07:28:06;;;;;;;;;;;8.50;63.00;;;7.33;40.27;101074.22;2567658;30;139071;-41
2022/03/13 07:30:34;;;;;;;;;;;8.60;64.30;;;7.39;39.05;101076.19;2567255;30;138101;-41
2022/03/13 07:33:01;;;;;;;;;;;8.70;62.80;;;7.43;39.03;101082.13;2567923;30;139832;-41
2022/03/13 07:35:29;;;;;;;;;;;8.70;62.80;;;7.50;39.12;101088.47;2567266;30;138048;-41
2022/03/13 07:37:56;;;;;;;;;;;8.80;62.90;;;7.44;38.33;101086.50;2567610;30;139252;-41
2022/03/13 07:40:24;;;;;;;;;;;8.70;62.20;;;7.46;38.79;101085.28;2568756;30;136669;-41
2022/03/13 07:42:52;;;;;;;;;;;8.80;62.70;;;7.41;39.07;101086.84;2566149;30;138380;-41
2022/03/13 07:45:20;;;;;;;;;;;8.70;63.00;;;7.40;39.49;101090.59;2568305;30;136787;-41
2022/03/13 07:47:48;;;;;;;;;;;8.70;63.50;;;7.38;40.28;101082.66;2568691;30;139323;-41
2022/03/13 07:50:16;;;;;;;;;;;8.70;64.80;;;7.38;39.69;101085.38;2568398;30;137363;-41
2022/03/13 07:52:43;;;;;;;;;;;8.70;63.60;;;7.43;39.35;101084.81;2568992;30;137182;-41
2022/03/13 07:55:10;;;;;;;;;;;8.70;63.00;;;7.49;39.45;101086.78;2567235;30;137011;-41
2022/03/13 07:57:38;;;;;;;;;;;8.80;62.80;;;7.57;39.04;101070.41;2567796;30;138953;-41
2022/03/13 08:00:10;;;;;;;;;;;8.80;63.00;;;7.54;38.62;101078.06;2568975;30;138140;-41
2022/03/13 08:02:44;;;;;;;;;;;8.80;62.40;;;7.63;38.48;101075.09;2567229;30;137114;-41
2022/03/13 08:05:14;;;;;;;;;;;8.90;62.60;;;7.69;38.49;101073.50;2568746;30;137121;-41
2022/03/13 08:07:41;;;;;;;;;;;8.90;62.40;;;7.74;39.32;101081.09;2569216;30;138118;-40
2022/03/13 08:10:10;;;;;;;;;;;9.00;63.40;;;7.75;39.30;101075.47;2567434;30;137153;-40
2022/03/13 08:12:39;;;;;;;;;;;9.00;63.00;;;7.74;38.58;101079.22;2568002;30;138673;-41
2022/03/13 08:15:08;;;;;;;;;;;9.00;62.80;;;7.85;39.25;101080.59;2568042;30;137144;-41
2022/03/13 08:17:35;;;;;;;;;;;9.10;63.30;;;7.96;38.89;101079.28;2568007;30;138196;-41
2022/03/13 08:20:06;;;;;;;;;;;9.20;62.90;;;8.07;37.92;101080.69;2568552;30;136973;-41
2022/03/13 08:22:34;;;;;;;;;;;9.30;62.90;;;8.12;37.65;101078.25;2567855;30;138128;-41
2022/03/13 08:25:01;;;;;;;;;;;9.30;61.40;;;8.25;39.67;101080.28;2566915;30;137581;-41
2022/03/13 08:27:29;;;;;;;;;;;9.40;63.70;;;8.43;39.79;101079.84;2568879;30;138203;-41
2022/03/13 08:29:58;;;;;;;;;;;9.50;64.30;;;8.60;37.27;101077.75;2568607;30;137226;-40
2022/03/13 08:32:26;;;;;;;;;;;9.70;61.30;;;8.68;37.70;101081.41;2567685;30;139107;-41
2022/03/13 08:34:53;;;;;;;;;;;9.80;61.60;;;8.65;38.04;101081.81;2569851;30;137363;-41
2022/03/13 08:37:21;;;;;;;;;;;9.90;61.70;;;8.63;37.98;101074.69;2568872;30;138228;-41
2022/03/13 08:39:48;;;;;;;;;;;9.80;62.20;;;8.63;38.65;101063.81;2569660;30;136875;-41
2022/03/13 08:42:15;;;;;;;;;;;9.90;62.50;;;8.60;37.76;101072.31;2568620;30;137844;-41
2022/03/13 08:44:43;;;;;;;;;;;9.80;61.60;;;8.54;37.90;101072.28;2567995;30;136861;-41
2022/03/13 08:47:10;;;;;;;;;;;9.80;61.80;;;8.54;38.30;101080.44;2566777;30;137054;-41
2022/03/13 08:49:38;;;;;;;;;;;9.80;62.10;;;8.68;37.79;101078.69;2569752;30;136899;-41
2022/03/13 08:52:05;;;;;;;;;;;9.90;61.70;;;8.83;37.49;101075.91;2570448;30;138230;-41
2022/03/13 08:54:34;;;;;;;;;;;10.00;61.30;;;8.89;39.30;101072.41;2569113;30;137189;-41
2022/03/13 08:57:02;;;;;;;;;;;10.10;64.00;;;9.00;38.83;101077.28;2568812;30;137180;-41
2022/03/13 08:59:31;;;;;;;;;;;10.20;63.10;;;9.18;36.87;101076.00;2568581;30;137230;-42
2022/03/13 09:01:58;;;;;;;;;;;10.30;60.90;;;9.33;37.81;101063.13;2569381;30;137460;-41
2022/03/13 09:04:27;;;;;;;;;;;10.40;62.20;;;9.44;38.87;101069.91;2568611;30;137030;-41
2022/03/13 09:06:54;;;;;;;;;;;10.60;63.90;;;9.61;38.55;101064.13;2567605;30;138346;-40
2022/03/13 09:09:23;;;;;;;;;;;10.70;62.70;;;9.74;37.45;101060.66;2569456;30;137184;-41
2022/03/13 09:11:54;;;;;;;;;;;10.80;62.40;;;9.69;36.96;101068.59;2569822;30;138512;-42
2022/03/13 09:14:21;;;;;;;;;;;10.90;60.70;;;9.77;38.76;101060.25;2569015;30;136900;-39
2022/03/13 09:16:49;;;;;;;;;;;10.90;63.60;;;9.74;38.25;101069.69;2568234;30;137141;-40
2022/03/13 09:19:16;;;;;;;;;;;10.90;62.30;;;9.67;37.38;101067.94;2568120;30;136760;-41
2022/03/13 09:21:44;;;;;;;;;;;10.90;61.10;;;9.61;37.78;101070.44;2567752;30;137137;-40
2022/03/13 09:24:30;;;;;;;;;;;10.90;61.80;;;9.57;37.95;101071.03;2569225;30;137035;-41
2022/03/13 09:26:57;;;;;;;;;;;10.80;62.00;;;9.56;37.11;101064.75;2569389;30;139178;-41
2022/03/13 09:29:25;;;;;;;;;;;10.80;61.10;;;9.71;37.87;101063.78;2569459;30;137238;-41
2022/03/13 09:31:55;;;;;;;;;;;10.90;62.00;;;9.86;38.40;101075.41;2569053;30;137108;-41
2022/03/13 09:34:22;;;;;;;;;;;11.00;62.40;;;10.01;37.50;101063.50;2568285;30;136933;-41
2022/03/13 09:36:50;;;;;;;;;;;11.10;61.80;;;10.13;37.21;101063.75;2569975;30;136904;-41
2022/03/13 09:39:17;;;;;;;;;;;11.30;61.20;;;10.20;37.28;101062.75;2568291;30;137010;-41
2022/03/13 09:41:45;;;;;;;;;;;11.30;61.40;;;10.25;37.88;101072.19;2568014;30;137447;-41
2022/03/13 09:44:12;;;;;;;;;;;11.40;61.70;;;10.24;37.23;101063.19;2568255;30;136956;-41
2022/03/13 09:46:39;;;;;;;;;;;11.50;61.10;;;10.11;37.36;101055.81;2568163;30;139048;-42
2022/03/13 09:49:07;;;;;;;;;;;11.40;61.50;;;10.12;38.00;101054.75;2568013;30;136984;-41
2022/03/13 09:51:34;;;;;;;;;;;11.30;61.80;;;10.12;37.10;101052.03;2566656;30;138593;-41
2022/03/13 09:54:03;;;;;;;;;;;11.40;60.90;;;10.20;39.47;101046.41;2568533;30;137164;-41
2022/03/13 09:56:34;;;;;;;;;;;11.40;63.00;;;10.24;38.83;101044.09;2567024;30;139476;-41
2022/03/13 09:59:01;;;;;;;;;;;11.40;62.80;;;10.33;38.28;101045.59;2568627;30;137175;-41
2022/03/13 10:01:29;;;;;;;;;;;11.50;62.80;;;10.48;37.61;101045.44;2566579;30;138426;-41
2022/03/13 10:03:56;;;;;;;;;;;11.60;61.80;;;10.76;40.25;101049.06;2568750;30;137843;-41
2022/03/13 10:06:25;;;;;;;;;;;11.80;65.30;;;10.99;37.60;101045.94;2568924;30;138432;-41
2022/03/13 10:08:52;;;;;;;;;;;12.00;62.20;;;11.18;37.98;101046.97;2566130;30;137300;-41
2022/03/13 10:11:35;;;;;;;;;;;12.20;62.50;;;11.37;37.66;101049.91;2567930;30;137345;-41
2022/03/13 10:14:10;;;;;;;;;;;12.30;62.90;;;11.44;37.48;101030.78;2568325;30;138087;-41
2022/03/13 10:16:39;;;;;;;;;;;12.50;62.20;;;11.69;37.49;101050.03;2567559;30;138274;-41
2022/03/13 10:19:17;;;;;;;;;;;12.60;62.00;;;11.87;37.93;101043.88;2566037;30;137343;-41
2022/03/13 10:22:07;;;;;;;;;;;12.80;62.40;;;12.00;36.82;101045.72;2566977;30;138445;-41
2022/03/13 10:24:40;;;;;;;;;;;13.00;61.50;;;12.15;37.36;101042.75;2568658;30;137880;-41
2022/03/13 10:27:13;;;;;;;;;;;13.10;62.50;;;12.31;36.74;101035.91;2569274;30;137198;-41
2022/03/13 10:29:42;;;;;;;;;;;13.30;62.30;;;12.31;37.14;101038.66;2566954;30;137256;-40
2022/03/13 10:32:10;;;;;;;;;;;13.40;61.80;;;12.41;37.74;101038.19;2568691;30;139099;-40
2022/03/13 10:34:38;;;;;;;;;;;13.40;62.80;;;12.44;37.08;101037.75;2568662;30;136889;-41
2022/03/13 10:37:07;;;;;;;;;;;13.50;61.50;;;12.49;36.39;101029.75;2569665;30;139119;-42
2022/03/13 10:39:35;;;;;;;;;;;13.60;60.90;;;12.58;37.07;101040.41;2569140;30;137234;-41
2022/03/13 10:42:03;;;;;;;;;;;13.60;61.90;;;12.66;36.68;101024.56;2568779;30;139020;-42
2022/03/13 10:44:36;;;;;;;;;;;13.70;61.20;;;12.75;37.79;101016.94;2566604;30;136793;-41
2022/03/13 10:47:09;;;;;;;;;;;13.80;63.00;;;12.90;37.48;101022.06;2568923;30;137378;-41
2022/03/13 10:49:42;;;;;;;;;;;13.90;62.50;;;13.03;37.36;101020.25;2568115;30;137465;-41
2022/03/13 10:52:31;;;;;;;;;;;14.10;62.20;;;13.17;38.30;101016.34;2566263;30;138217;-41
2022/03/13 10:55:24;;;;;;;;;;;14.20;63.10;;;13.29;37.11;101010.97;2567893;30;137138;-42
2022/03/13 10:57:53;;;;;;;;;;;14.30;63.10;;;13.43;37.71;101013.59;2567083;30;137322;-41
2022/03/13 11:00:22;;;;;;;;;;;14.40;62.50;;;13.62;39.12;101006.22;2568395;30;137447;-40
2022/03/13 11:02:51;;;;;;;;;;;14.50;64.60;;;13.83;38.17;101004.94;2569098;30;138294;-41
2022/03/13 11:05:18;;;;;;;;;;;14.70;64.20;;;13.95;37.47;101005.81;2569273;30;136847;-41
2022/03/13 11:07:50;;;;;;;;;;;14.90;62.80;;;14.03;39.25;101006.56;2567269;30;138384;-41
2022/03/13 11:10:18;;;;;;;;;;;15.00;64.80;;;14.07;38.58;100999.56;2567460;30;137764;-41
2022/03/13 11:12:48;;;;;;;;;;;15.00;63.80;;;14.17;38.56;100998.97;2569440;30;138423;-41
2022/03/13 11:15:16;;;;;;;;;;;15.10;64.00;;;14.22;38.04;100996.41;2568703;30;136894;-41
2022/03/13 11:17:46;;;;;;;;;;;15.30;63.40;;;14.27;39.29;100998.44;2568452;30;139109;-41
2022/03/13 11:20:13;;;;;;;;;;;15.30;65.10;;;14.29;38.77;100988.91;2566542;30;137234;-41
2022/03/13 11:22:41;;;;;;;;;;;15.30;64.40;;;14.35;37.54;100995.38;2567852;30;138993;-41